Flinterborg — PHPH — position and weather

sailwx.info

Track history (hours):
 
Tides and Currents Weather Stations Pressure Air Temp Water Temp Dewpoint Dewpoint Depression Visibility Wind Speed Wind Dir Waves Ship Positions

Flinterborg

Last reported at 2014-Dec-20 20:33 UTC. Time now 2014-Dec-20 20:51 UTC.
Position N 53°29' E 004°42'.

Length 111 m; draft 4.1 m.

Type: Ship. MMSI: 245433000.

Date/timePositionNaut miles runAvg speedWind from/ knotsBaromVisibWave heightAir tempDewpointWater temp
2014-Dec-20 20:33N 53°29' E 004°42'9 8.9
2014-Dec-20 19:33N 53°32' E 004°56'8 8.0
2014-Dec-20 18:33N 53°35' E 005°08'7 6.7
2014-Dec-20 17:33N 53°37' E 005°19'6 6.1
2014-Dec-20 16:33N 53°39' E 005°29'6 5.7
2014-Dec-20 15:33N 53°41' E 005°38'6 6.1
2014-Dec-20 14:33N 53°43' E 005°48'6 6.5
2014-Dec-20 13:33N 53°45' E 005°58'7 7.3
2014-Dec-20 12:32N 53°47' E 006°10'49 5.3
2014-Dec-20 03:21N 53°59' E 007°30'5 6.2
2014-Dec-20 02:33N 53°59' E 007°39'8 6.7
2014-Dec-20 01:24N 53°53' E 007°47'5 6.5
2014-Dec-20 00:33N 53°52' E 007°56'9 8.6
2014-Dec-19 23:33N 53°48' E 008°09'1212.0
2014-Dec-19 22:33N 53°39' E 008°24'10 9.9
2014-Dec-19 21:33N 53°31' E 008°32'9 9.2
2014-Dec-19 20:33N 53°21' E 008°30'0 0.0
2014-Dec-19 19:31N 53°21' E 008°30'0 0.0
2014-Dec-19 18:31N 53°21' E 008°30'0 0.0
2014-Dec-19 17:31N 53°21' E 008°30'0 0.0
2014-Dec-19 16:33N 53°21' E 008°30'0 0.0
2014-Dec-19 15:32N 53°21' E 008°30'0 0.0
2014-Dec-19 14:32N 53°21' E 008°30'0 0.0
2014-Dec-19 13:32N 53°21' E 008°30'0 0.0
2014-Dec-19 12:31N 53°21' E 008°30'0 0.0
2014-Dec-19 11:31N 53°21' E 008°30'0 0.0
2014-Dec-19 10:34N 53°21' E 008°30'0 0.0
2014-Dec-19 09:33N 53°21' E 008°30'7 7.5
2014-Dec-19 08:33N 53°29' E 008°30'1010.2
2014-Dec-19 07:33N 53°39' E 008°25'1313.1
2014-Dec-19 06:34N 53°47' E 008°09'1110.5
2014-Dec-19 05:33N 53°54' E 007°54'8 8.6
2014-Dec-19 04:33N 53°58' E 008°06'9 8.5
2014-Dec-19 03:33N 53°60' E 008°20'1211.5
2014-Dec-19 02:33N 53°57' E 008°39'1212.3
2014-Dec-19 01:33N 53°51' E 008°58'7 7.0
2014-Dec-19 00:33N 53°54' E 009°09'4 3.6
2014-Dec-18 23:33N 53°56' E 009°13'9 8.5
2014-Dec-18 22:33N 54°04' E 009°19'8 8.1
2014-Dec-18 21:33N 54°11' E 009°27'8 7.1
2014-Dec-18 20:27N 54°16' E 009°37'7 7.7
2014-Dec-18 19:31N 54°21' E 009°46'7 7.6
2014-Dec-18 18:33N 54°21' E 009°58'5 5.1
2014-Dec-18 17:33N 54°22' E 010°07'1 0.7
2014-Dec-18 16:32N 54°22' E 010°08'0 0.0
2014-Dec-18 15:31N 54°22' E 010°08'0 0.0
2014-Dec-18 14:33N 54°22' E 010°08'1 0.7
2014-Dec-18 13:33N 54°22' E 010°09'6 5.7
2014-Dec-18 12:33N 54°27' E 010°14'1010.5
2014-Dec-18 11:33N 54°33' E 010°29'1111.3
2014-Dec-18 10:33N 54°35' E 010°48'1110.9
2014-Dec-18 09:33N 54°36' E 011°07'1511.1
2014-Dec-18 08:14N 54°32' E 011°31'1111.4
2014-Dec-18 07:15N 54°28' E 011°49'1111.0
2014-Dec-18 06:15N 54°27' E 012°08'6411.3
2014-Dec-18 00:33N 55°00' E 013°44'1211.7
2014-Dec-17 23:33N 55°04' E 014°04'1211.7
2014-Dec-17 22:33N 55°13' E 014°17'1211.6
2014-Dec-17 21:33N 55°22' E 014°31'1111.3
2014-Dec-17 20:33N 55°29' E 014°45'1212.1
2014-Dec-17 19:33N 55°35' E 015°04'1211.4
2014-Dec-17 18:31N 55°42' E 015°22'  
Track history (hours):
 
Tides and Currents Weather Stations Pressure Air Temp Water Temp Dewpoint Dewpoint Depression Visibility Wind Speed Wind Dir Waves Ship Positions

Flinterborg

Last reported at 2014-Dec-20 20:33 UTC. Time now 2014-Dec-20 20:51 UTC.
Position N 53°29' E 004°42'.

Length 111 m; draft 4.1 m.

Type: Ship. MMSI: 245433000.

Date/timePositionNaut miles runAvg speedWind from/ knotsBaromVisibWave heightAir tempDewpointWater temp
2014-Dec-20 20:33N 53°29' E 004°42'9 8.9
2014-Dec-20 19:33N 53°32' E 004°56'8 8.0
2014-Dec-20 18:33N 53°35' E 005°08'7 6.7
2014-Dec-20 17:33N 53°37' E 005°19'6 6.1
2014-Dec-20 16:33N 53°39' E 005°29'6 5.7
2014-Dec-20 15:33N 53°41' E 005°38'6 6.1
2014-Dec-20 14:33N 53°43' E 005°48'6 6.5
2014-Dec-20 13:33N 53°45' E 005°58'7 7.3
2014-Dec-20 12:32N 53°47' E 006°10'49 5.3
2014-Dec-20 03:21N 53°59' E 007°30'5 6.2
2014-Dec-20 02:33N 53°59' E 007°39'8 6.7
2014-Dec-20 01:24N 53°53' E 007°47'5 6.5
2014-Dec-20 00:33N 53°52' E 007°56'9 8.6
2014-Dec-19 23:33N 53°48' E 008°09'1212.0
2014-Dec-19 22:33N 53°39' E 008°24'10 9.9
2014-Dec-19 21:33N 53°31' E 008°32'9 9.2
2014-Dec-19 20:33N 53°21' E 008°30'0 0.0
2014-Dec-19 19:31N 53°21' E 008°30'0 0.0
2014-Dec-19 18:31N 53°21' E 008°30'0 0.0
2014-Dec-19 17:31N 53°21' E 008°30'0 0.0
2014-Dec-19 16:33N 53°21' E 008°30'0 0.0
2014-Dec-19 15:32N 53°21' E 008°30'0 0.0
2014-Dec-19 14:32N 53°21' E 008°30'0 0.0
2014-Dec-19 13:32N 53°21' E 008°30'0 0.0
2014-Dec-19 12:31N 53°21' E 008°30'0 0.0
2014-Dec-19 11:31N 53°21' E 008°30'0 0.0
2014-Dec-19 10:34N 53°21' E 008°30'0 0.0
2014-Dec-19 09:33N 53°21' E 008°30'7 7.5
2014-Dec-19 08:33N 53°29' E 008°30'1010.2
2014-Dec-19 07:33N 53°39' E 008°25'1313.1
2014-Dec-19 06:34N 53°47' E 008°09'1110.5
2014-Dec-19 05:33N 53°54' E 007°54'8 8.6
2014-Dec-19 04:33N 53°58' E 008°06'9 8.5
2014-Dec-19 03:33N 53°60' E 008°20'1211.5
2014-Dec-19 02:33N 53°57' E 008°39'1212.3
2014-Dec-19 01:33N 53°51' E 008°58'7 7.0
2014-Dec-19 00:33N 53°54' E 009°09'4 3.6
2014-Dec-18 23:33N 53°56' E 009°13'9 8.5
2014-Dec-18 22:33N 54°04' E 009°19'8 8.1
2014-Dec-18 21:33N 54°11' E 009°27'8 7.1
2014-Dec-18 20:27N 54°16' E 009°37'7 7.7
2014-Dec-18 19:31N 54°21' E 009°46'7 7.6
2014-Dec-18 18:33N 54°21' E 009°58'5 5.1
2014-Dec-18 17:33N 54°22' E 010°07'1 0.7
2014-Dec-18 16:32N 54°22' E 010°08'0 0.0
2014-Dec-18 15:31N 54°22' E 010°08'0 0.0
2014-Dec-18 14:33N 54°22' E 010°08'1 0.7
2014-Dec-18 13:33N 54°22' E 010°09'6 5.7
2014-Dec-18 12:33N 54°27' E 010°14'1010.5
2014-Dec-18 11:33N 54°33' E 010°29'1111.3
2014-Dec-18 10:33N 54°35' E 010°48'1110.9
2014-Dec-18 09:33N 54°36' E 011°07'1511.1
2014-Dec-18 08:14N 54°32' E 011°31'1111.4
2014-Dec-18 07:15N 54°28' E 011°49'1111.0
2014-Dec-18 06:15N 54°27' E 012°08'6411.3
2014-Dec-18 00:33N 55°00' E 013°44'1211.7
2014-Dec-17 23:33N 55°04' E 014°04'1211.7
2014-Dec-17 22:33N 55°13' E 014°17'1211.6
2014-Dec-17 21:33N 55°22' E 014°31'1111.3
2014-Dec-17 20:33N 55°29' E 014°45'1212.1
2014-Dec-17 19:33N 55°35' E 015°04'1211.4
2014-Dec-17 18:31N 55°42' E 015°22'  

Dump ship's entire track history